Time;durP1;ratioP1;P1;durP2;ratioP2;P2;SDS_P1;SDS_P2;PMS_P1;PMS_P2;Temp;Humidity;BMP_temperature;BMP_pressure;BME280_temperature;BME280_humidity;BME280_pressure;Samples;Min_cycle;Max_cycle;Signal;HPM_P1;HPM_P2
2023/07/04 00:00:44;;;;;;;2.75;1.98;;;;;;;-145.69;100.00;52095.84;5074410;28;20202;-85
2023/07/04 00:03:11;;;;;;;2.85;1.80;;;;;;;-145.69;100.00;52115.66;5074156;28;20194;-85
2023/07/04 00:05:38;;;;;;;2.70;1.63;;;;;;;-145.69;100.00;52143.38;5074213;28;20240;-85
2023/07/04 00:08:05;;;;;;;3.85;1.67;;;;;;;-145.69;100.00;52099.81;5074141;28;20289;-85
2023/07/04 00:10:33;;;;;;;2.17;1.63;;;;;;;-145.69;100.00;52095.84;5073585;28;20229;-85
2023/07/04 00:13:03;;;;;;;4.05;1.80;;;;;;;-145.69;100.00;52082.00;5073679;28;20555;-84
2023/07/04 00:15:33;;;;;;;3.50;1.60;;;;;;;-145.69;100.00;52123.56;5073485;28;20191;-84
2023/07/04 00:17:59;;;;;;;4.10;2.17;;;;;;;-145.69;100.00;52103.78;5069344;28;20537;-84
2023/07/04 00:20:33;;;;;;;3.35;2.00;;;;;;;-145.69;100.00;52137.44;5073687;28;20199;-84
2023/07/04 00:22:59;;;;;;;4.45;1.73;;;;;;;-145.69;100.00;52119.63;5073646;28;20199;-84
2023/07/04 00:25:26;;;;;;;2.55;1.65;;;;;;;-145.69;100.00;52115.66;5073588;28;20222;-84
2023/07/04 00:27:54;;;;;;;4.32;1.85;;;;;;;-145.69;100.00;52115.66;5073549;28;20282;-84
2023/07/04 00:30:21;;;;;;;4.40;2.00;;;;;;;-145.69;100.00;52109.72;5072422;28;20284;-84
2023/07/04 00:32:47;;;;;;;2.80;2.00;;;;;;;-145.69;100.00;52117.63;5073447;28;20307;-84
2023/07/04 00:35:14;;;;;;;3.35;2.15;;;;;;;-145.69;100.00;52093.88;5073595;28;20221;-83
2023/07/04 00:37:43;;;;;;;2.05;1.45;;;;;;;-145.69;100.00;52115.66;5073149;28;20202;-84
2023/07/04 00:40:12;;;;;;;4.80;1.75;;;;;;;-145.69;100.00;52135.47;5073330;28;20199;-83
2023/07/04 00:42:41;;;;;;;5.60;1.60;;;;;;;-145.69;100.00;52131.50;5073250;28;20248;-83
2023/07/04 00:45:19;;;;;;;6.35;1.88;;;;;;;-145.69;100.00;52137.44;5073248;28;20210;-84
2023/07/04 00:47:53;;;;;;;6.45;1.80;;;;;;;-145.69;100.00;52133.47;5073361;28;20230;-84
2023/07/04 00:50:23;;;;;;;4.22;1.60;;;;;;;-145.69;100.00;52145.34;5072754;28;20330;-84
2023/07/04 00:52:54;;;;;;;3.28;1.80;;;;;;;-145.69;100.00;52131.50;5073313;28;20211;-84
2023/07/04 00:55:26;;;;;;;5.25;1.95;;;;;;;-145.69;100.00;52161.19;5073240;28;20202;-85
2023/07/04 00:57:52;;;;;;;3.83;1.75;;;;;;;-145.69;100.00;52143.38;5073459;28;20538;-85
2023/07/04 01:00:28;;;;;;;2.88;1.73;;;;;;;-145.69;100.00;52147.34;5073108;28;20665;-85
2023/07/04 01:03:01;;;;;;;2.13;1.83;;;;;;;-145.69;100.00;52159.22;5073184;28;20221;-85
2023/07/04 01:05:35;;;;;;;4.57;1.55;;;;;;;-145.69;100.00;52147.34;5072886;28;20202;-84
2023/07/04 01:08:10;;;;;;;3.38;1.77;;;;;;;-145.69;100.00;52139.41;5073055;28;20207;-84
2023/07/04 01:10:42;;;;;;;2.80;1.63;;;;;;;-145.69;100.00;52151.28;5072936;28;20229;-84
2023/07/04 01:13:33;;;;;;;2.10;1.63;;;;;;;-145.69;100.00;52141.41;5072797;28;20215;-83
2023/07/04 01:16:02;;;;;;;5.85;1.90;;;;;;;-145.69;100.00;52133.47;5073045;28;20191;-84
2023/07/04 01:18:32;;;;;;;2.55;1.63;;;;;;;-145.69;100.00;52163.19;5072883;28;20213;-83
2023/07/04 01:21:05;;;;;;;3.22;1.65;;;;;;;-145.69;100.00;52117.63;5073002;28;20294;-84
2023/07/04 01:23:52;;;;;;;3.85;1.80;;;;;;;-145.69;100.00;52137.44;5073025;28;20257;-84
2023/07/04 01:26:29;;;;;;;4.38;1.95;;;;;;;-145.69;100.00;52121.59;5073156;28;20210;-84
2023/07/04 01:28:59;;;;;;;5.70;1.83;;;;;;;-145.69;100.00;52127.53;5072947;28;20194;-84
2023/07/04 01:31:30;;;;;;;2.85;1.40;;;;;;;-145.69;100.00;52165.16;5072782;28;20206;-83
2023/07/04 01:34:00;;;;;;;3.22;1.60;;;;;;;-145.69;100.00;52163.19;5072771;28;20198;-84
2023/07/04 01:36:32;;;;;;;6.13;1.80;;;;;;;-145.69;100.00;52177.03;5072585;28;20199;-84
2023/07/04 01:38:58;;;;;;;2.17;1.70;;;;;;;-145.69;100.00;52133.47;5072936;28;20210;-84
2023/07/04 01:41:28;;;;;;;2.50;1.58;;;;;;;-145.69;100.00;52159.22;5074289;28;20203;-84
2023/07/04 01:44:03;;;;;;;2.17;1.70;;;;;;;-145.69;100.00;52167.13;5076244;28;20658;-83
2023/07/04 01:46:29;;;;;;;2.97;1.83;;;;;;;-145.69;100.00;52163.19;5076674;28;20208;-83
2023/07/04 01:48:56;;;;;;;5.30;1.70;;;;;;;-145.69;100.00;52129.50;5076487;28;20202;-84
2023/07/04 01:51:26;;;;;;;3.60;1.70;;;;;;;-145.69;100.00;52186.94;5076099;28;20240;-83
2023/07/04 01:53:53;;;;;;;6.10;2.08;;;;;;;-145.69;100.00;52159.22;5076332;28;20210;-83
2023/07/04 01:56:19;;;;;;;2.72;1.70;;;;;;;-145.69;100.00;52139.41;5076259;28;20202;-83
2023/07/04 01:58:47;;;;;;;3.55;1.75;;;;;;;-145.69;100.00;52135.47;5076355;28;20207;-83
2023/07/04 02:01:14;;;;;;;2.53;1.70;;;;;;;-145.69;100.00;52165.16;5076175;28;20293;-83
2023/07/04 02:03:41;;;;;;;6.70;1.75;;;;;;;-145.69;100.00;52179.03;5076290;28;20203;-83
2023/07/04 02:06:08;;;;;;;2.10;1.75;;;;;;;-145.69;100.00;52155.25;5076131;28;20230;-83
2023/07/04 02:08:35;;;;;;;2.70;1.57;;;;;;;-145.69;100.00;52145.34;5076044;28;20286;-83
2023/07/04 02:11:04;;;;;;;2.28;1.80;;;;;;;-145.69;100.00;52151.28;5066133;28;20702;-83
2023/07/04 02:13:31;;;;;;;4.57;1.88;;;;;;;-145.69;100.00;52159.22;5055786;28;20214;-83
2023/07/04 02:15:59;;;;;;;2.97;1.80;;;;;;;-145.69;100.00;52157.25;5055900;28;20655;-83
2023/07/04 02:18:26;;;;;;;6.30;2.10;;;;;;;-145.69;100.00;52115.66;5055931;28;20282;-82
2023/07/04 02:20:55;;;;;;;5.82;2.30;;;;;;;-145.69;100.00;52171.09;5074036;28;20430;-82
2023/07/04 02:23:22;;;;;;;3.83;2.15;;;;;;;-145.69;100.00;52151.28;5075882;28;20629;-82
2023/07/04 02:25:49;;;;;;;5.65;2.20;;;;;;;-145.69;100.00;52139.41;5075694;28;20234;-83
2023/07/04 02:28:16;;;;;;;3.50;2.22;;;;;;;-145.69;100.00;52151.28;5075528;28;20286;-82
2023/07/04 02:30:53;;;;;;;5.95;2.15;;;;;;;-145.69;100.00;52155.25;5075711;28;20238;-82
2023/07/04 02:33:21;;;;;;;4.75;2.33;;;;;;;-145.69;100.00;52163.19;5075197;28;20676;-82
2023/07/04 02:35:47;;;;;;;5.25;2.58;;;;;;;-145.69;100.00;52119.63;5075616;28;20209;-82
2023/07/04 02:38:14;;;;;;;3.95;2.50;;;;;;;-145.69;100.00;52143.38;5075482;28;20251;-82
2023/07/04 02:40:46;;;;;;;2.78;2.00;;;;;;;-145.69;100.00;52155.25;5075305;28;20217;-82
2023/07/04 02:43:13;;;;;;;5.25;2.08;;;;;;;-145.69;100.00;52159.22;5075325;28;20199;-82
2023/07/04 02:45:41;;;;;;;2.20;1.80;;;;;;;-145.69;100.00;52147.34;5075490;28;20206;-82
2023/07/04 02:48:10;;;;;;;6.28;1.95;;;;;;;-145.69;100.00;52127.53;5081160;28;20194;-82
2023/07/04 02:50:38;;;;;;;3.65;1.98;;;;;;;-145.69;100.00;52139.41;5095457;28;20238;-82
2023/07/04 02:53:04;;;;;;;3.35;2.05;;;;;;;-145.69;100.00;52165.16;5094317;28;20222;-82
2023/07/04 02:55:35;;;;;;;4.75;2.22;;;;;;;-145.69;100.00;52155.25;5095752;28;20289;-82
2023/07/04 02:58:04;;;;;;;3.05;2.30;;;;;;;-145.69;100.00;52139.41;5084991;28;20565;-82
2023/07/04 03:00:31;;;;;;;3.80;2.30;;;;;;;-145.69;100.00;52157.25;5074218;28;20465;-82
2023/07/04 03:02:57;;;;;;;3.78;2.67;;;;;;;-145.69;100.00;52139.41;5075123;28;20195;-82
2023/07/04 03:05:24;;;;;;;4.20;1.88;;;;;;;-145.69;100.00;52182.97;5074961;28;20221;-82
2023/07/04 03:07:54;;;;;;;5.20;1.85;;;;;;;-145.69;100.00;52139.41;5074752;28;20229;-82
2023/07/04 03:10:21;;;;;;;2.75;2.00;;;;;;;-145.69;100.00;52149.31;5074595;28;20701;-82
2023/07/04 03:12:47;;;;;;;3.20;2.17;;;;;;;-145.69;100.00;52161.19;5075065;28;20202;-82
2023/07/04 03:15:16;;;;;;;3.80;2.08;;;;;;;-145.69;100.00;52153.28;5074929;28;20565;-82
2023/07/04 03:17:43;;;;;;;3.88;2.10;;;;;;;-145.69;100.00;52131.50;5074626;28;20209;-82
2023/07/04 03:20:11;;;;;;;5.72;2.50;;;;;;;-145.69;100.00;52153.28;5074716;28;20202;-82
2023/07/04 03:22:38;;;;;;;3.28;2.30;;;;;;;-145.69;100.00;52151.28;5074739;28;20207;-82
2023/07/04 03:25:08;;;;;;;4.22;2.25;;;;;;;-145.69;100.00;52200.81;5074572;28;20202;-82
2023/07/04 03:27:37;;;;;;;4.45;2.10;;;;;;;-145.69;100.00;52167.13;5075023;28;20596;-82
2023/07/04 03:30:06;;;;;;;3.35;2.08;;;;;;;-145.69;100.00;52167.13;5074448;28;20252;-83
2023/07/04 03:32:32;;;;;;;4.53;2.30;;;;;;;-145.69;100.00;52151.28;5074406;28;20199;-82
2023/07/04 03:35:03;;;;;;;5.00;2.00;;;;;;;-145.69;100.00;52155.25;5074417;28;20202;-82
2023/07/04 03:37:30;;;;;;;3.83;1.80;;;;;;;-145.69;100.00;52167.13;5074423;28;20238;-83
2023/07/04 03:39:57;;;;;;;3.58;2.33;;;;;;;-145.69;100.00;52153.28;5074290;28;20203;-82
2023/07/04 03:42:27;;;;;;;3.65;2.40;;;;;;;-145.69;100.00;52159.22;5074277;28;20198;-82
2023/07/04 03:44:54;;;;;;;4.60;2.30;;;;;;;-145.69;100.00;52151.28;5074129;28;20669;-82
2023/07/04 03:47:20;;;;;;;6.65;2.30;;;;;;;-145.69;100.00;52151.28;5074313;28;20230;-83
2023/07/04 03:49:47;;;;;;;4.65;1.90;;;;;;;-145.69;100.00;52169.13;5073905;28;20246;-83
2023/07/04 03:52:14;;;;;;;2.78;2.00;;;;;;;-145.69;100.00;52155.25;5074072;28;20202;-83
2023/07/04 03:54:40;;;;;;;4.20;2.65;;;;;;;-145.69;100.00;52173.09;5074396;28;20214;-83
2023/07/04 03:57:07;;;;;;;3.85;2.83;;;;;;;-145.69;100.00;52119.63;5074139;28;20535;-83
2023/07/04 03:59:35;;;;;;;4.97;2.30;;;;;;;-145.69;100.00;52127.53;5073921;28;20214;-82
2023/07/04 04:02:02;;;;;;;6.60;2.20;;;;;;;-145.69;100.00;52147.34;5074191;28;20353;-82
2023/07/04 04:04:30;;;;;;;5.40;2.50;;;;;;;-145.69;100.00;52151.28;5073893;28;20198;-83
2023/07/04 04:06:59;;;;;;;5.68;2.60;;;;;;;-145.69;100.00;52149.31;5074123;28;20290;-83
2023/07/04 04:09:25;;;;;;;2.85;2.22;;;;;;;-145.69;100.00;52169.13;5073800;28;20198;-83
2023/07/04 04:11:52;;;;;;;5.57;2.45;;;;;;;-145.69;100.00;52171.09;5070129;28;20230;-83
2023/07/04 04:14:19;;;;;;;4.07;1.75;;;;;;;-145.69;100.00;52157.25;5073505;28;20697;-82
2023/07/04 04:16:46;;;;;;;5.85;2.03;;;;;;;-145.69;100.00;52115.66;5073487;28;20218;-83
2023/07/04 04:19:13;;;;;;;3.95;2.05;;;;;;;-145.69;100.00;52153.28;5074034;28;20206;-83
2023/07/04 04:21:40;;;;;;;5.88;1.90;;;;;;;-145.69;100.00;52131.50;5073150;28;20202;-83
2023/07/04 04:24:06;;;;;;;2.50;2.08;;;;;;;-145.69;100.00;52155.25;5073515;28;20561;-84
2023/07/04 04:26:38;;;;;;;5.45;2.30;;;;;;;-145.69;100.00;52151.28;5073272;28;20207;-84
2023/07/04 04:29:06;;;;;;;3.78;2.30;;;;;;;-145.69;100.00;52143.38;5073388;28;20286;-84
2023/07/04 04:31:37;;;;;;;5.65;2.47;;;;;;;-145.69;100.00;52167.13;5073143;28;20657;-84
2023/07/04 04:34:05;;;;;;;2.45;1.92;;;;;;;-145.69;100.00;52139.41;5073527;28;20604;-83
2023/07/04 04:36:34;;;;;;;5.35;2.47;;;;;;;-145.69;100.00;52125.56;5073336;28;20207;-84
2023/07/04 04:39:01;;;;;;;2.72;2.10;;;;;;;-145.69;100.00;52135.47;5073439;28;20661;-84
2023/07/04 04:41:28;;;;;;;4.75;2.50;;;;;;;-145.69;100.00;52167.13;5072947;28;20603;-84
2023/07/04 04:43:55;;;;;;;4.32;2.45;;;;;;;-145.69;100.00;52135.47;5073146;28;20203;-84
2023/07/04 04:46:22;;;;;;;3.83;1.90;;;;;;;-145.69;100.00;52135.47;5073496;28;20233;-83
2023/07/04 04:48:51;;;;;;;4.53;2.15;;;;;;;-145.69;100.00;52131.50;5073298;28;20527;-83
2023/07/04 04:51:22;;;;;;;5.22;2.05;;;;;;;-145.69;100.00;52119.63;5072860;28;20318;-84
2023/07/04 04:53:49;;;;;;;3.50;2.25;;;;;;;-145.69;100.00;52125.56;5073312;28;20284;-84
2023/07/04 04:56:16;;;;;;;4.72;2.40;;;;;;;-145.69;100.00;52149.31;5072918;28;20217;-83
2023/07/04 04:58:44;;;;;;;4.55;2.03;;;;;;;-145.69;100.00;52159.22;5072933;28;20618;-83
2023/07/04 05:01:15;;;;;;;5.53;2.67;;;;;;;-145.69;100.00;52159.22;5072582;28;20446;-84
2023/07/04 05:03:42;;;;;;;3.70;2.35;;;;;;;-145.69;100.00;52133.47;5072670;28;20649;-83
2023/07/04 05:06:09;;;;;;;10.38;2.10;;;;;;;-145.69;100.00;52151.28;5073012;28;20203;-83
2023/07/04 05:08:37;;;;;;;4.18;2.20;;;;;;;-145.69;100.00;52151.28;5072900;28;20202;-84
2023/07/04 05:11:07;;;;;;;3.80;2.08;;;;;;;-145.69;100.00;52159.22;5072735;28;20374;-83
2023/07/04 05:13:36;;;;;;;3.30;1.67;;;;;;;-145.69;100.00;52131.50;5072896;28;20286;-83
2023/07/04 05:16:05;;;;;;;3.25;2.03;;;;;;;-145.69;100.00;52133.47;5072352;28;20206;-83
2023/07/04 05:18:32;;;;;;;4.35;2.10;;;;;;;-145.69;100.00;52139.41;5072836;28;20207;-83
2023/07/04 05:21:06;;;;;;;6.97;2.17;;;;;;;-145.69;100.00;52115.66;5072726;28;20297;-84
2023/07/04 05:23:34;;;;;;;6.88;2.20;;;;;;;-145.69;100.00;52091.88;5073009;28;20207;-84
2023/07/04 05:26:05;;;;;;;5.57;2.15;;;;;;;-145.69;100.00;52143.38;5072976;28;20721;-84
2023/07/04 05:28:32;;;;;;;4.45;1.73;;;;;;;-145.69;100.00;52127.53;5072917;28;20248;-84
2023/07/04 05:31:01;;;;;;;5.18;2.13;;;;;;;-145.69;100.00;52139.41;5072573;28;20689;-85
2023/07/04 05:33:30;;;;;;;3.40;1.85;;;;;;;-145.69;100.00;52091.88;5072860;28;20209;-84
2023/07/04 05:36:04;;;;;;;3.22;2.15;;;;;;;-145.69;100.00;52117.63;5073046;28;20205;-85
2023/07/04 05:38:31;;;;;;;5.15;2.10;;;;;;;-145.69;100.00;52123.56;5072860;28;20198;-86
2023/07/04 05:40:58;;;;;;;3.88;2.00;;;;;;;-145.69;100.00;52127.53;5073362;28;20210;-87
2023/07/04 05:43:28;;;;;;;4.65;2.00;;;;;;;-145.69;100.00;52115.66;5073584;28;20201;-88
2023/07/04 05:45:56;;;;;;;4.38;1.90;;;;;;;-145.69;100.00;52143.38;5073576;28;20210;-88
2023/07/04 05:48:24;;;;;;;5.05;1.90;;;;;;;-145.69;100.00;52115.66;5073393;28;20286;-88
2023/07/04 05:51:01;;;;;;;5.47;1.80;;;;;;;-145.69;100.00;52119.63;5073525;28;20321;-87
2023/07/04 05:53:30;;;;;;;3.13;1.95;;;;;;;-145.69;100.00;52097.84;5073305;28;20209;-86
2023/07/04 05:56:08;;;;;;;3.25;1.63;;;;;;;-145.69;100.00;52137.44;5073443;28;20207;-87
2023/07/04 05:58:38;;;;;;;4.72;1.88;;;;;;;-145.69;100.00;52131.50;5073036;28;20650;-87
2023/07/04 06:01:08;;;;;;;6.28;2.40;;;;;;;-145.69;100.00;52109.72;5073137;28;20294;-87
2023/07/04 06:03:39;;;;;;;3.60;1.63;;;;;;;-145.69;100.00;52119.63;5066355;28;20203;-87
2023/07/04 06:06:07;;;;;;;4.40;1.70;;;;;;;-145.69;100.00;52095.84;5053203;28;20647;-88
2023/07/04 06:08:34;;;;;;;4.22;1.98;;;;;;;-145.69;100.00;52105.75;5052977;28;20758;-88
2023/07/04 06:11:03;;;;;;;7.50;1.92;;;;;;;-145.69;100.00;52093.88;5053117;28;20695;-88
2023/07/04 06:13:29;;;;;;;2.45;1.55;;;;;;;-145.69;100.00;52105.75;5053413;28;20203;-87
2023/07/04 06:15:59;;;;;;;4.43;1.83;;;;;;;-145.69;100.00;52099.81;5053333;28;20466;-88
2023/07/04 06:18:26;;;;;;;3.53;1.50;;;;;;;-145.69;100.00;52115.66;5053593;28;20208;-88
2023/07/04 06:20:52;;;;;;;4.28;1.88;;;;;;;-145.69;100.00;52068.13;5073142;28;20231;-88
2023/07/04 06:23:23;;;;;;;3.97;1.80;;;;;;;-145.69;100.00;52087.94;5072183;28;20442;-88
2023/07/04 06:25:56;;;;;;;8.50;2.20;;;;;;;-145.69;100.00;52087.94;5073024;28;20207;-87
2023/07/04 06:28:25;;;;;;;6.90;1.65;;;;;;;-145.69;100.00;52103.78;5074281;28;20216;-88
2023/07/04 06:30:54;;;;;;;3.15;1.85;;;;;;;-145.69;100.00;52091.88;5076432;28;20218;-88
2023/07/04 06:33:22;;;;;;;4.40;1.98;;;;;;;-145.69;100.00;52089.91;5076966;28;20319;-88
2023/07/04 06:35:49;;;;;;;5.80;1.80;;;;;;;-145.69;100.00;52115.66;5076645;28;20222;-88
2023/07/04 06:38:18;;;;;;;2.20;1.67;;;;;;;-145.69;100.00;52034.47;5076506;28;20225;-88
2023/07/04 06:40:56;;;;;;;5.22;2.08;;;;;;;-145.69;100.00;52064.16;5076160;28;20199;-88
2023/07/04 06:43:22;;;;;;;6.40;1.83;;;;;;;-145.69;100.00;52056.25;5076468;28;20210;-88
2023/07/04 06:45:49;;;;;;;3.08;1.73;;;;;;;-145.69;100.00;52068.13;5076357;28;20260;-87
2023/07/04 06:48:16;;;;;;;5.05;2.20;;;;;;;-145.69;100.00;52091.88;5076135;28;20202;-88
2023/07/04 06:50:45;;;;;;;4.43;1.98;;;;;;;-145.69;100.00;52095.84;5075956;28;20239;-89
2023/07/04 06:53:11;;;;;;;5.78;2.03;;;;;;;-145.69;100.00;52068.13;5076018;28;20664;-88
2023/07/04 06:55:39;;;;;;;3.28;1.42;;;;;;;-145.69;100.00;52082.00;5076098;28;20618;-88
2023/07/04 06:58:07;;;;;;;6.32;1.98;;;;;;;-145.69;100.00;52048.31;5075997;28;20210;-88
2023/07/04 07:00:33;;;;;;;6.72;2.00;;;;;;;-145.69;100.00;52056.25;5076120;28;20221;-88
2023/07/04 07:03:01;;;;;;;7.18;2.38;;;;;;;-145.69;100.00;52036.44;5075218;28;20448;-87
2023/07/04 07:05:27;;;;;;;5.07;2.30;;;;;;;-145.69;94.16;52028.53;5076313;28;20297;-88
2023/07/04 07:07:55;;;;;;;5.72;2.03;;;;;;;-145.69;92.74;52042.38;5076056;28;20203;-87
2023/07/04 07:10:24;;;;;;;3.50;1.52;;;;;;;-145.69;92.80;52080.00;5075560;28;20248;-88
2023/07/04 07:12:50;;;;;;;5.00;2.17;;;;;;;-145.69;98.29;52062.19;5075150;28;20677;-88
2023/07/04 07:15:17;;;;;;;7.28;1.75;;;;;;;-145.69;92.29;52107.72;5076053;28;20260;-88
2023/07/04 07:17:44;;;;;;;4.75;1.73;;;;;;;-145.69;92.19;52074.06;5075475;28;20237;-88
2023/07/04 07:20:11;;;;;;;7.72;2.65;;;;;;;-145.69;92.49;52028.53;5075757;28;20209;-88
2023/07/04 07:22:38;;;;;;;10.85;2.40;;;;;;;-145.69;91.83;52028.53;5075774;28;20229;-88
2023/07/04 07:25:07;;;;;;;3.15;1.83;;;;;;;-145.69;90.52;52038.44;5075772;28;20468;-88
2023/07/04 07:27:35;;;;;;;5.47;2.05;;;;;;;-145.69;88.72;52068.13;5075581;28;20289;-88
2023/07/04 07:30:02;;;;;;;6.32;1.90;;;;;;;-145.69;84.48;52038.44;5075734;28;20586;-89
2023/07/04 07:32:28;;;;;;;3.08;1.58;;;;;;;-145.69;89.90;52044.38;5075380;28;20237;-89
2023/07/04 07:34:55;;;;;;;4.45;1.88;;;;;;;-145.69;87.15;52026.53;5075300;28;20285;-88
2023/07/04 07:37:22;;;;;;;5.72;1.90;;;;;;;-145.69;81.69;52024.56;5075467;28;20301;-88
2023/07/04 07:39:50;;;;;;;4.93;1.73;;;;;;;-145.69;82.34;52032.47;5074894;28;20289;-89
2023/07/04 07:42:20;;;;;;;3.65;1.73;;;;;;;-145.69;83.68;52024.56;5075498;28;20264;-88
2023/07/04 07:44:47;;;;;;;8.80;2.22;;;;;;;-145.69;79.61;52004.75;5075100;28;20202;-88
2023/07/04 07:47:14;;;;;;;6.88;1.98;;;;;;;-145.69;70.97;52044.38;5075123;28;20202;-89
2023/07/04 07:49:42;;;;;;;4.55;2.10;;;;;;;-145.69;77.08;52038.44;5074814;28;20260;-88
2023/07/04 07:52:08;;;;;;;8.00;2.58;;;;;;;-145.69;74.44;52006.75;5074972;28;20226;-86
2023/07/04 07:54:38;;;;;;;5.75;2.30;;;;;;;-145.69;70.75;52024.56;5074718;28;20195;-87
2023/07/04 07:57:05;;;;;;;9.82;2.45;;;;;;;-145.69;68.17;51992.88;5074589;28;20206;-88
2023/07/04 07:59:33;;;;;;;4.88;1.73;;;;;;;-145.69;63.24;52028.53;5074486;28;20206;-86
2023/07/04 08:02:05;;;;;;;5.88;1.98;;;;;;;-145.69;63.22;51994.88;5074602;28;20237;-87
2023/07/04 08:04:33;;;;;;;6.10;2.22;;;;;;;-145.69;58.88;52010.69;5074774;28;20206;-87
2023/07/04 08:06:59;;;;;;;8.27;2.28;;;;;;;-145.69;60.43;52016.66;5073386;28;20285;-86
2023/07/04 08:09:26;;;;;;;4.80;2.50;;;;;;;-145.69;57.55;51994.88;5056411;28;20199;-87
2023/07/04 08:11:52;;;;;;;8.88;2.22;;;;;;;-145.69;56.77;51994.88;5054236;28;20556;-86
2023/07/04 08:14:19;;;;;;;5.63;2.30;;;;;;;-145.69;57.55;52000.81;5053043;28;20443;-86
2023/07/04 08:16:51;;;;;;;7.93;2.10;;;;;;;-145.69;57.96;52004.75;5054199;28;20222;-86
2023/07/04 08:19:23;;;;;;;5.10;1.80;;;;;;;-145.69;54.93;52028.53;5054219;28;20226;-86
2023/07/04 08:21:49;;;;;;;6.93;2.30;;;;;;;-145.69;58.40;51990.91;5054095;28;20234;-87
2023/07/04 08:24:19;;;;;;;7.45;2.38;;;;;;;-145.69;60.11;51981.00;5054227;28;20260;-87
2023/07/04 08:26:47;;;;;;;6.15;2.13;;;;;;;-145.69;59.55;51971.09;5054094;28;20696;-88
2023/07/04 08:29:15;;;;;;;7.72;2.35;;;;;;;-145.69;58.71;51992.88;5061787;28;20197;-88
2023/07/04 08:31:41;;;;;;;6.85;2.30;;;;;;;-145.69;55.54;51990.91;5073960;28;20218;-86
2023/07/04 08:34:10;;;;;;;6.32;2.10;;;;;;;-145.69;56.94;52014.66;5074032;28;20202;-88
2023/07/04 08:36:39;;;;;;;4.13;1.92;;;;;;;-145.69;58.43;51992.88;5073911;28;20208;-88
2023/07/04 08:39:09;;;;;;;6.97;2.45;;;;;;;-145.69;52.07;51981.00;5074392;28;20557;-88
2023/07/04 08:41:44;;;;;;;4.78;2.05;;;;;;;-145.69;53.27;51994.88;5073976;28;20203;-87
2023/07/04 08:44:16;;;;;;;4.78;2.25;;;;;;;-145.69;54.14;51975.06;5074214;28;20202;-88
2023/07/04 08:46:45;;;;;;;6.40;2.30;;;;;;;-145.69;55.85;51975.06;5074142;28;20203;-88
2023/07/04 08:49:25;;;;;;;4.75;2.20;;;;;;;-145.69;49.99;51963.19;5074113;28;20238;-88
2023/07/04 08:51:57;;;;;;;7.65;2.10;;;;;;;-145.69;53.35;51988.91;5072746;28;20242;-88
2023/07/04 08:54:24;;;;;;;11.30;2.40;;;;;;;-145.69;55.80;51982.97;5073780;28;20658;-88
2023/07/04 08:56:57;;;;;;;4.28;2.10;;;;;;;-145.69;49.62;51969.13;5073950;28;20211;-88
2023/07/04 08:59:39;;;;;;;5.38;2.47;;;;;;;-145.69;46.44;51994.88;5073834;28;20207;-88
2023/07/04 09:02:24;;;;;;;8.23;2.50;;;;;;;-145.69;50.36;51967.13;5073976;28;20592;-88
2023/07/04 09:05:02;;;;;;;7.23;2.43;;;;;;;-145.69;50.14;52008.72;5072907;28;20815;-87
2023/07/04 09:07:34;;;;;;;6.47;2.30;;;;;;;-145.69;48.34;51994.88;5073918;28;20457;-89
2023/07/04 09:10:15;;;;;;;5.68;2.60;;;;;;;-145.69;49.31;52020.59;5073376;28;20226;-85
2023/07/04 09:12:44;;;;;;;5.60;2.20;;;;;;;-145.69;52.20;52016.66;5073654;28;20681;-87
2023/07/04 09:15:20;;;;;;;7.05;2.22;;;;;;;-145.69;51.75;51988.91;5073850;28;20199;-88
2023/07/04 09:17:53;;;;;;;6.95;2.40;;;;;;;-145.69;50.90;51988.91;5073547;28;20543;-87
2023/07/04 09:20:21;;;;;;;8.65;2.35;;;;;;;-145.69;48.46;51977.03;5073310;28;20260;-88
2023/07/04 09:22:48;;;;;;;7.18;2.55;;;;;;;-145.69;47.83;51981.00;5073598;28;20245;-88
2023/07/04 09:25:15;;;;;;;4.93;2.10;;;;;;;-145.69;48.21;51957.25;5073428;28;20739;-88
2023/07/04 09:27:44;;;;;;;5.70;2.42;;;;;;;-145.69;46.41;51982.97;5073721;28;20206;-89
2023/07/04 09:30:12;;;;;;;9.25;2.20;;;;;;;-145.69;48.86;51973.06;5073626;28;20213;-88
2023/07/04 09:32:39;;;;;;;6.22;2.40;;;;;;;-145.69;50.21;51969.13;5073381;28;20716;-88
2023/07/04 09:35:07;;;;;;;5.40;2.47;;;;;;;-145.69;50.08;51925.56;5073716;28;20205;-89
2023/07/04 09:37:54;;;;;;;6.30;2.42;;;;;;;-145.69;52.70;51921.59;5073583;28;20199;-89
2023/07/04 09:40:41;;;;;;;7.32;2.53;;;;;;;-145.69;44.65;51973.06;5073541;28;20654;-87
2023/07/04 09:43:08;;;;;;;5.00;2.15;;;;;;;-145.69;49.86;51945.34;5073398;28;20241;-89
2023/07/04 09:45:35;;;;;;;10.73;2.40;;;;;;;-145.69;50.73;51961.19;5073152;28;20205;-87
2023/07/04 09:48:02;;;;;;;5.95;2.03;;;;;;;-145.69;50.63;51984.97;5073261;28;20198;-87
2023/07/04 09:50:30;;;;;;;4.00;2.10;;;;;;;-145.69;49.45;51979.03;5073040;28;20225;-88
2023/07/04 09:53:09;;;;;;;4.90;2.00;;;;;;;-145.69;50.47;51986.94;5073102;28;20230;-88
2023/07/04 09:55:37;;;;;;;3.10;1.75;;;;;;;-145.69;54.48;52008.72;5073477;28;20202;-89
2023/07/04 09:58:21;;;;;;;5.28;2.13;;;;;;;-145.69;56.25;52000.81;5073371;28;20419;-89
2023/07/04 10:01:06;;;;;;;7.90;2.17;;;;;;;-145.69;59.15;52004.75;5073143;28;20281;-87
2023/07/04 10:03:35;;;;;;;6.22;2.10;;;;;;;-145.69;56.38;52024.56;5076918;28;20708;-88
2023/07/04 10:06:03;;;;;;;7.05;2.53;;;;;;;-145.69;53.38;52012.69;5072884;28;20199;-87
2023/07/04 10:08:33;;;;;;;6.65;2.50;;;;;;;-145.69;55.25;52012.69;5075576;28;20210;-87
2023/07/04 10:11:00;;;;;;;5.38;2.15;;;;;;;-145.69;55.72;52030.50;5077136;28;20203;-88
2023/07/04 10:13:35;;;;;;;3.65;2.00;;;;;;;-145.69;56.77;52020.59;5076622;28;20226;-89
2023/07/04 10:16:02;;;;;;;3.92;1.80;;;;;;;-145.69;55.37;52000.81;5076911;28;20248;-86
2023/07/04 10:18:31;;;;;;;2.47;1.80;;;;;;;-145.69;58.80;52016.66;5076796;28;20538;-88
2023/07/04 10:21:02;;;;;;;5.63;1.60;;;;;;;-145.69;50.08;52010.69;5076569;28;20229;-88
2023/07/04 10:23:41;;;;;;;4.03;1.92;;;;;;;-145.69;51.19;51998.81;5076844;28;20213;-89
2023/07/04 10:26:09;;;;;;;3.85;1.92;;;;;;;-145.69;55.52;52008.72;5076510;28;20661;-88
2023/07/04 10:28:39;;;;;;;4.40;1.88;;;;;;;-145.69;51.72;52022.59;5076360;28;20202;-87
2023/07/04 10:31:14;;;;;;;3.63;1.73;;;;;;;-145.69;55.58;51992.88;5076807;28;20270;-89
2023/07/04 10:33:44;;;;;;;4.32;1.88;;;;;;;-145.69;55.49;52004.75;5076416;28;20657;-89
2023/07/04 10:36:14;;;;;;;4.95;1.50;;;;;;;-145.69;50.00;51990.91;5076747;28;20681;-88
2023/07/04 10:38:44;;;;;;;4.25;1.67;;;;;;;-145.69;47.10;51965.16;5076433;28;20195;-88
2023/07/04 10:41:22;;;;;;;5.25;1.77;;;;;;;-145.69;46.41;51977.03;5076563;28;20203;-88
2023/07/04 10:43:56;;;;;;;3.28;1.70;;;;;;;-145.69;47.53;51969.13;5075155;28;20202;-89
2023/07/04 10:46:26;;;;;;;4.97;1.85;;;;;;;-145.69;54.61;51994.88;5076464;28;20202;-88
2023/07/04 10:49:04;;;;;;;4.63;1.80;;;;;;;-145.69;48.76;51973.06;5076618;28;20221;-88
2023/07/04 10:51:34;;;;;;;8.35;1.42;;;;;;;-145.69;46.35;51949.31;5076068;28;20244;-88
2023/07/04 10:54:03;;;;;;;2.85;1.60;;;;;;;-145.69;45.99;51957.25;5075885;28;20213;-88
2023/07/04 10:56:34;;;;;;;5.90;1.55;;;;;;;-145.69;44.38;51937.44;5075841;28;20253;-89
2023/07/04 10:59:06;;;;;;;3.13;1.60;;;;;;;-145.69;46.56;51951.28;5076251;28;20202;-88
2023/07/04 11:01:38;;;;;;;3.60;1.65;;;;;;;-145.69;42.74;51925.56;5076014;28;20241;-89
2023/07/04 11:04:10;;;;;;;2.53;1.40;;;;;;;-145.69;42.88;51941.41;5076493;28;20604;-88
2023/07/04 11:06:46;;;;;;;4.68;1.10;;;;;;;-145.69;42.06;51988.91;5075788;28;20199;-88
2023/07/04 11:09:16;;;;;;;3.65;1.40;;;;;;;-145.69;44.40;51941.41;5076138;28;20216;-89
2023/07/04 11:11:50;;;;;;;4.07;1.88;;;;;;;-145.69;44.33;51933.47;5075895;28;20199;-89
2023/07/04 11:14:24;;;;;;;3.13;1.30;;;;;;;-145.69;43.24;51919.63;5073896;28;20285;-89
2023/07/04 11:17:03;;;;;;;3.60;1.67;;;;;;;-145.69;45.32;51923.56;5075280;28;20208;-89
2023/07/04 11:19:32;;;;;;;3.28;1.65;;;;;;;-145.69;42.69;51961.19;5075460;28;20586;-88
2023/07/04 11:22:16;;;;;;;2.90;1.60;;;;;;;-145.69;43.22;51933.47;5075650;28;20205;-90